Time;durP1;ratioP1;P1;durP2;ratioP2;P2;SDS_P1;SDS_P2;PMS_P1;PMS_P2;Temp;Humidity;BMP_temperature;BMP_pressure;BME280_temperature;BME280_humidity;BME280_pressure;Samples;Min_cycle;Max_cycle;Signal;HPM_P1;HPM_P2
2021/03/04 00:00:33;;;;;;;10.68;3.90;;;5.60;85.20;;;;;;5015943;28;20044;-77
2021/03/04 00:02:59;;;;;;;9.75;3.40;;;5.50;85.20;;;;;;5033414;28;20109;-76
2021/03/04 00:05:25;;;;;;;9.48;3.40;;;5.50;85.30;;;;;;5033554;28;20128;-76
2021/03/04 00:07:50;;;;;;;8.65;3.42;;;5.50;85.30;;;;;;5033128;28;20182;-76
2021/03/04 00:10:19;;;;;;;9.50;3.70;;;5.40;85.30;;;;;;5016297;28;20049;-77
2021/03/04 00:12:45;;;;;;;11.55;3.95;;;5.40;85.50;;;;;;5015570;28;20120;-76
2021/03/04 00:15:13;;;;;;;14.32;5.30;;;5.30;85.50;;;;;;4999108;28;20503;-77
2021/03/04 00:17:39;;;;;;;10.65;3.75;;;5.30;85.60;;;;;;5033224;28;20484;-76
2021/03/04 00:20:08;;;;;;;12.05;5.15;;;5.30;85.70;;;;;;5033301;28;20069;-77
2021/03/04 00:22:34;;;;;;;10.75;3.92;;;5.30;85.70;;;;;;5033415;28;20166;-76
2021/03/04 00:25:03;;;;;;;10.90;4.47;;;5.30;85.80;;;;;;5033071;28;20045;-74
2021/03/04 00:27:29;;;;;;;12.18;4.07;;;5.30;85.80;;;;;;5033453;28;20099;-75
2021/03/04 00:29:55;;;;;;;9.63;3.50;;;5.20;85.70;;;;;;5033262;28;20065;-78
2021/03/04 00:32:21;;;;;;;8.23;3.45;;;5.20;85.70;;;;;;4999098;28;20048;-76
2021/03/04 00:34:46;;;;;;;9.55;3.53;;;5.20;85.80;;;;;;4990081;28;20057;-76
2021/03/04 00:37:12;;;;;;;8.85;3.63;;;5.30;85.80;;;;;;4975303;28;20121;-77
2021/03/04 00:39:38;;;;;;;9.48;3.55;;;5.30;85.80;;;;;;4989629;28;20046;-77
2021/03/04 00:42:05;;;;;;;8.98;3.67;;;5.30;85.80;;;;;;4975159;28;20050;-77
2021/03/04 00:44:31;;;;;;;7.88;3.35;;;5.20;85.80;;;;;;4975202;28;20046;-76
2021/03/04 00:46:56;;;;;;;8.18;3.15;;;5.30;85.80;;;;;;4975146;28;20046;-77
2021/03/04 00:49:22;;;;;;;6.95;3.20;;;5.30;85.80;;;;;;4974849;28;20125;-77
2021/03/04 00:51:48;;;;;;;8.20;2.80;;;5.30;85.90;;;;;;4975205;28;20438;-76
2021/03/04 00:54:14;;;;;;;8.68;3.53;;;5.30;86.00;;;;;;4974848;28;20141;-77
2021/03/04 00:56:40;;;;;;;8.05;3.03;;;5.30;85.90;;;;;;4991702;28;20125;-77
2021/03/04 00:59:05;;;;;;;5.80;2.70;;;5.30;85.80;;;;;;4991393;28;20046;-77
2021/03/04 01:01:31;;;;;;;5.88;2.38;;;5.40;85.90;;;;;;4975242;28;20088;-77
2021/03/04 01:03:57;;;;;;;8.80;3.38;;;5.30;85.80;;;;;;4991275;28;20141;-77
2021/03/04 01:06:24;;;;;;;6.85;2.55;;;5.30;85.80;;;;;;5005068;28;20042;-77
2021/03/04 01:08:50;;;;;;;5.43;2.25;;;5.30;85.90;;;;;;5012845;28;20108;-77
2021/03/04 01:11:16;;;;;;;7.03;2.45;;;5.30;86.00;;;;;;5014736;28;20041;-78
2021/03/04 01:13:43;;;;;;;7.03;2.55;;;5.30;86.00;;;;;;5014694;28;20527;-77
2021/03/04 01:16:08;;;;;;;9.35;3.20;;;5.30;86.10;;;;;;5032267;28;20049;-77
2021/03/04 01:18:35;;;;;;;7.55;3.08;;;5.40;86.10;;;;;;4998108;28;20037;-77
2021/03/04 01:21:02;;;;;;;6.82;2.70;;;5.30;86.00;;;;;;5014447;28;20068;-77
2021/03/04 01:23:28;;;;;;;7.25;2.88;;;5.40;86.00;;;;;;4998253;28;21334;-78
2021/03/04 01:25:54;;;;;;;7.10;2.67;;;5.40;86.00;;;;;;5014631;28;20041;-79
2021/03/04 01:28:19;;;;;;;7.15;2.80;;;5.30;85.80;;;;;;5014516;28;20045;-77
2021/03/04 01:30:45;;;;;;;6.00;2.38;;;5.40;85.90;;;;;;5014632;28;20039;-77
2021/03/04 01:33:11;;;;;;;5.63;2.20;;;5.30;86.00;;;;;;5014272;28;20034;-77
2021/03/04 01:35:36;;;;;;;5.10;2.25;;;5.30;86.00;;;;;;4998503;28;20038;-77
2021/03/04 01:38:02;;;;;;;6.82;2.25;;;5.30;86.10;;;;;;4998563;28;20497;-77
2021/03/04 01:40:28;;;;;;;6.35;2.50;;;5.30;86.20;;;;;;4998100;28;20475;-77
2021/03/04 01:42:54;;;;;;;5.13;1.80;;;5.30;86.20;;;;;;5032237;28;20436;-77
2021/03/04 01:45:20;;;;;;;5.53;2.15;;;5.30;86.30;;;;;;5032244;28;20084;-78
2021/03/04 01:47:49;;;;;;;6.95;2.38;;;5.30;86.40;;;;;;5032130;28;20423;-78
2021/03/04 01:50:16;;;;;;;7.07;2.75;;;5.30;86.30;;;;;;5032478;28;20106;-78
2021/03/04 01:52:43;;;;;;;6.97;2.60;;;5.30;86.30;;;;;;5031942;28;20476;-77
2021/03/04 01:55:09;;;;;;;4.75;2.08;;;5.40;86.30;;;;;;5030330;28;20127;-77
2021/03/04 01:57:37;;;;;;;6.45;2.60;;;5.40;86.30;;;;;;5014375;28;20049;-78
2021/03/04 02:00:05;;;;;;;7.13;2.70;;;5.30;86.30;;;;;;5014196;28;20103;-78
2021/03/04 02:02:30;;;;;;;4.63;1.85;;;5.30;86.30;;;;;;5014764;28;20072;-77
2021/03/04 02:04:56;;;;;;;6.78;2.42;;;5.30;86.40;;;;;;5014178;28;20042;-77
2021/03/04 02:07:38;;;;;;;5.43;2.08;;;5.30;86.40;;;;;;5032018;28;20041;-77
2021/03/04 02:10:13;;;;;;;7.20;2.38;;;5.30;86.40;;;;;;5031787;28;20092;-77
2021/03/04 02:12:48;;;;;;;6.20;2.78;;;5.30;86.30;;;;;;5032131;28;20049;-77
2021/03/04 02:15:20;;;;;;;5.20;2.13;;;5.30;86.40;;;;;;5031589;28;20041;-77
2021/03/04 02:17:49;;;;;;;4.07;2.08;;;5.30;86.40;;;;;;5031336;28;20042;-77
2021/03/04 02:20:29;;;;;;;6.80;2.60;;;5.20;86.40;;;;;;5013754;28;20140;-78
2021/03/04 02:23:07;;;;;;;6.10;2.53;;;5.20;86.50;;;;;;4997915;28;20041;-77
2021/03/04 02:25:46;;;;;;;7.90;2.58;;;5.10;86.50;;;;;;5013831;28;20517;-77
2021/03/04 02:28:12;;;;;;;7.20;2.30;;;5.10;86.50;;;;;;5013919;28;20491;-76
2021/03/04 02:30:40;;;;;;;3.92;1.60;;;5.10;86.60;;;;;;5013914;28;20038;-76
2021/03/04 02:33:13;;;;;;;4.90;2.20;;;5.10;86.70;;;;;;5013752;28;20140;-76
2021/03/04 02:35:42;;;;;;;4.65;2.08;;;5.10;86.80;;;;;;5031621;28;20050;-77
2021/03/04 02:38:13;;;;;;;5.15;1.98;;;5.00;86.70;;;;;;5014658;28;20176;-76
2021/03/04 02:40:41;;;;;;;4.27;1.93;;;5.10;86.80;;;;;;5031618;28;20046;-78
2021/03/04 02:43:11;;;;;;;5.20;2.10;;;5.00;86.70;;;;;;5013710;28;20400;-77
2021/03/04 02:45:37;;;;;;;6.70;2.50;;;5.00;86.80;;;;;;5031488;28;20063;-76
2021/03/04 02:48:05;;;;;;;4.60;1.73;;;4.90;86.80;;;;;;5013645;28;20582;-77
2021/03/04 02:50:32;;;;;;;6.65;2.70;;;4.90;86.90;;;;;;5014284;28;20046;-77
2021/03/04 02:52:58;;;;;;;6.18;2.00;;;4.90;86.90;;;;;;5013638;28;20095;-76
2021/03/04 02:55:26;;;;;;;4.53;1.85;;;5.00;86.90;;;;;;5031655;28;20045;-76
2021/03/04 02:57:54;;;;;;;7.00;2.78;;;5.00;86.80;;;;;;5015298;28;20041;-76
2021/03/04 03:00:23;;;;;;;6.13;2.38;;;4.90;86.80;;;;;;5033448;28;20037;-76
2021/03/04 03:02:51;;;;;;;5.30;2.13;;;5.00;86.90;;;;;;5016818;28;20103;-76
2021/03/04 03:05:20;;;;;;;8.85;3.22;;;4.90;86.80;;;;;;5034910;28;20049;-76
2021/03/04 03:07:46;;;;;;;6.70;2.85;;;4.90;86.90;;;;;;5034216;28;20156;-77
2021/03/04 03:10:13;;;;;;;7.05;2.53;;;4.90;86.90;;;;;;5034425;28;20041;-76
2021/03/04 03:12:43;;;;;;;6.35;2.60;;;5.00;87.00;;;;;;5034415;28;20053;-77
2021/03/04 03:15:11;;;;;;;6.57;2.30;;;4.80;86.90;;;;;;5016408;28;20037;-76
2021/03/04 03:17:38;;;;;;;5.50;2.35;;;4.80;86.90;;;;;;5016998;28;20076;-76
2021/03/04 03:20:07;;;;;;;5.97;2.20;;;4.90;87.00;;;;;;5000298;28;20096;-76
2021/03/04 03:22:33;;;;;;;5.43;2.17;;;4.80;87.00;;;;;;5034235;28;20562;-76
2021/03/04 03:24:58;;;;;;;5.60;2.08;;;4.80;87.00;;;;;;5034290;28;20136;-77
2021/03/04 03:27:26;;;;;;;7.32;1.80;;;4.80;87.10;;;;;;5014414;28;20037;-77
2021/03/04 03:29:52;;;;;;;5.43;2.22;;;4.70;87.10;;;;;;5016645;28;20369;-76
2021/03/04 03:32:20;;;;;;;4.90;2.05;;;4.70;87.20;;;;;;5034381;28;20045;-77
2021/03/04 03:34:46;;;;;;;6.97;2.47;;;4.80;87.20;;;;;;5016403;28;20498;-76
2021/03/04 03:37:12;;;;;;;7.43;2.53;;;4.70;87.10;;;;;;5016439;28;20087;-76
2021/03/04 03:39:40;;;;;;;6.35;2.40;;;4.70;87.20;;;;;;5034252;28;20483;-77
2021/03/04 03:42:07;;;;;;;6.07;2.35;;;4.70;87.20;;;;;;5016048;28;20077;-77
2021/03/04 03:44:34;;;;;;;7.05;2.30;;;4.70;87.20;;;;;;5033863;28;20104;-77
2021/03/04 03:47:03;;;;;;;5.10;2.20;;;4.70;87.30;;;;;;5015720;28;20067;-76
2021/03/04 03:49:30;;;;;;;7.70;2.55;;;4.70;87.20;;;;;;5033568;28;20034;-76
2021/03/04 03:51:59;;;;;;;5.53;2.17;;;4.80;87.40;;;;;;5015821;28;20442;-76
2021/03/04 03:54:27;;;;;;;6.97;2.20;;;4.80;87.20;;;;;;4999930;28;20073;-77
2021/03/04 03:56:54;;;;;;;5.25;2.10;;;4.80;87.10;;;;;;4999726;28;20037;-77
2021/03/04 03:59:21;;;;;;;5.03;1.95;;;4.80;87.10;;;;;;5032406;28;20049;-77
2021/03/04 04:01:48;;;;;;;6.10;2.10;;;4.80;87.10;;;;;;5032287;28;20041;-77
2021/03/04 04:04:14;;;;;;;5.55;2.10;;;4.80;87.10;;;;;;5030149;28;20050;-76
2021/03/04 04:06:44;;;;;;;5.43;2.10;;;4.70;87.00;;;;;;5033585;28;20057;-77
2021/03/04 04:09:10;;;;;;;4.68;1.92;;;4.80;87.30;;;;;;4999750;28;20037;-77
2021/03/04 04:11:36;;;;;;;4.80;2.05;;;4.90;87.30;;;;;;5033113;28;20090;-76
2021/03/04 04:14:03;;;;;;;6.65;2.20;;;4.80;87.30;;;;;;5015396;28;20463;-76
2021/03/04 04:16:29;;;;;;;5.53;2.35;;;4.70;87.30;;;;;;5015468;28;20092;-76
2021/03/04 04:18:56;;;;;;;3.97;1.58;;;4.70;87.30;;;;;;5033286;28;20092;-76
2021/03/04 04:21:24;;;;;;;4.43;1.73;;;4.70;87.40;;;;;;5033436;28;20049;-76
2021/03/04 04:23:51;;;;;;;3.03;1.38;;;4.80;87.40;;;;;;5015529;28;20046;-77
2021/03/04 04:26:18;;;;;;;5.00;1.70;;;4.70;87.30;;;;;;5033333;28;20138;-76
2021/03/04 04:28:44;;;;;;;3.40;1.60;;;4.80;87.30;;;;;;4998993;28;20471;-77
2021/03/04 04:31:10;;;;;;;6.20;2.25;;;4.80;87.30;;;;;;5015344;28;20045;-77
2021/03/04 04:33:36;;;;;;;4.55;1.95;;;4.80;87.20;;;;;;5015225;28;20049;-76
2021/03/04 04:36:02;;;;;;;5.47;1.88;;;4.80;87.30;;;;;;4998876;28;20049;-77
2021/03/04 04:38:28;;;;;;;5.35;2.17;;;4.70;87.30;;;;;;5033217;28;20041;-77
2021/03/04 04:40:54;;;;;;;4.88;1.70;;;4.80;87.40;;;;;;5033079;28;20388;-77
2021/03/04 04:43:20;;;;;;;3.67;1.40;;;4.80;87.40;;;;;;5015186;28;20041;-77
2021/03/04 04:45:45;;;;;;;4.05;1.52;;;4.80;87.30;;;;;;5032877;28;20496;-77
2021/03/04 04:48:11;;;;;;;4.82;2.10;;;4.80;87.30;;;;;;5013660;28;20144;-76
2021/03/04 04:50:37;;;;;;;4.15;1.83;;;4.70;87.20;;;;;;5015175;28;20049;-77
2021/03/04 04:53:03;;;;;;;4.25;1.70;;;4.80;87.40;;;;;;5015172;28;20041;-77
2021/03/04 04:55:29;;;;;;;3.50;1.50;;;4.80;87.40;;;;;;5015428;28;20373;-78
2021/03/04 04:57:55;;;;;;;5.43;2.00;;;4.80;87.40;;;;;;4955530;28;20053;-78
2021/03/04 05:00:21;;;;;;;4.55;1.88;;;4.80;87.50;;;;;;4971773;28;20055;-78
2021/03/04 05:02:46;;;;;;;4.85;1.73;;;4.70;87.40;;;;;;4956079;28;20039;-78
2021/03/04 05:05:12;;;;;;;4.53;1.83;;;4.70;87.40;;;;;;4972030;28;20128;-78
2021/03/04 05:07:38;;;;;;;4.82;2.20;;;4.70;87.50;;;;;;4972225;28;20050;-79
2021/03/04 05:10:06;;;;;;;4.75;2.00;;;4.70;87.50;;;;;;4971826;28;20045;-78
2021/03/04 05:12:32;;;;;;;5.68;2.40;;;4.70;87.60;;;;;;4955648;28;20038;-78
2021/03/04 05:14:58;;;;;;;4.53;2.10;;;4.70;87.60;;;;;;4955433;28;20054;-78
2021/03/04 05:17:24;;;;;;;6.18;1.90;;;4.70;87.60;;;;;;4971736;28;20449;-78
2021/03/04 05:19:49;;;;;;;8.45;2.85;;;4.60;87.60;;;;;;4971288;28;20081;-76
2021/03/04 05:22:15;;;;;;;5.15;2.20;;;4.60;87.70;;;;;;4955477;28;20157;-76
2021/03/04 05:24:42;;;;;;;6.85;2.75;;;4.60;87.70;;;;;;4971868;28;20047;-76
2021/03/04 05:27:08;;;;;;;3.55;1.52;;;4.60;87.70;;;;;;4971940;28;20069;-76
2021/03/04 05:29:34;;;;;;;5.57;2.05;;;4.60;87.80;;;;;;4989730;28;20084;-77
2021/03/04 05:31:59;;;;;;;6.38;2.33;;;4.60;87.80;;;;;;5032884;28;20437;-77
2021/03/04 05:34:25;;;;;;;7.05;2.10;;;4.80;87.80;;;;;;5014690;28;20095;-76
2021/03/04 05:36:51;;;;;;;6.25;2.35;;;4.70;87.70;;;;;;5015389;28;20072;-78
2021/03/04 05:39:17;;;;;;;4.10;1.88;;;4.70;87.70;;;;;;5017104;28;20049;-77
2021/03/04 05:41:44;;;;;;;5.22;2.10;;;4.70;87.70;;;;;;5033454;28;20049;-77
2021/03/04 05:44:10;;;;;;;8.50;2.60;;;4.60;87.60;;;;;;5032448;28;20045;-77
2021/03/04 05:46:36;;;;;;;5.75;2.42;;;4.60;87.70;;;;;;5002286;28;20111;-77
2021/03/04 05:49:06;;;;;;;5.40;1.90;;;4.50;87.70;;;;;;5017194;28;20037;-77
2021/03/04 05:51:35;;;;;;;7.20;2.55;;;4.50;87.80;;;;;;5016442;28;20049;-77
2021/03/04 05:54:05;;;;;;;3.90;1.73;;;4.50;87.80;;;;;;5017933;28;20042;-77
2021/03/04 05:56:33;;;;;;;4.03;1.83;;;4.50;87.90;;;;;;5034756;28;20068;-77
2021/03/04 05:59:00;;;;;;;5.13;2.00;;;4.60;87.90;;;;;;5035082;28;20079;-77
2021/03/04 06:01:27;;;;;;;6.65;1.98;;;4.50;87.80;;;;;;5001212;28;20073;-77
2021/03/04 06:03:54;;;;;;;5.22;2.33;;;4.50;87.70;;;;;;5035505;28;20037;-77
2021/03/04 06:06:19;;;;;;;5.60;2.05;;;4.50;87.80;;;;;;5000338;28;20128;-78
2021/03/04 06:08:45;;;;;;;6.30;2.05;;;4.40;87.70;;;;;;5016903;28;20061;-78
2021/03/04 06:11:11;;;;;;;6.15;2.13;;;4.40;87.80;;;;;;5034568;28;20053;-76
2021/03/04 06:13:37;;;;;;;6.18;2.10;;;4.50;87.90;;;;;;4998955;28;20042;-77
2021/03/04 06:16:03;;;;;;;9.07;2.95;;;4.50;87.90;;;;;;4998373;28;20037;-77
2021/03/04 06:18:44;;;;;;;5.68;1.88;;;4.50;87.90;;;;;;5014148;28;20136;-77
2021/03/04 06:21:27;;;;;;;7.50;2.70;;;4.50;88.00;;;;;;4998568;28;20038;-77
2021/03/04 06:23:54;;;;;;;4.90;2.05;;;4.50;88.00;;;;;;5032314;28;20499;-77
2021/03/04 06:26:35;;;;;;;4.88;1.80;;;4.50;87.90;;;;;;5014089;28;20128;-77
2021/03/04 06:29:14;;;;;;;7.85;2.63;;;4.50;87.90;;;;;;5015916;28;20395;-77
2021/03/04 06:31:41;;;;;;;6.00;2.22;;;4.50;87.90;;;;;;4996568;28;20373;-77
2021/03/04 06:34:22;;;;;;;4.50;1.70;;;4.50;87.90;;;;;;5017259;28;20048;-76
2021/03/04 06:36:58;;;;;;;5.57;2.00;;;4.60;87.90;;;;;;5017878;28;20046;-77
2021/03/04 06:39:26;;;;;;;7.80;2.63;;;4.50;87.80;;;;;;5018032;28;20045;-77
2021/03/04 06:42:01;;;;;;;6.38;2.33;;;4.50;87.80;;;;;;5017406;28;20056;-77
2021/03/04 06:44:26;;;;;;;7.28;2.30;;;4.40;87.80;;;;;;5017223;28;20045;-78
2021/03/04 06:46:52;;;;;;;5.57;2.17;;;4.40;87.80;;;;;;5017116;28;20091;-77
2021/03/04 06:49:18;;;;;;;5.70;2.10;;;4.40;87.90;;;;;;5017424;28;20041;-76
2021/03/04 06:51:45;;;;;;;7.05;2.75;;;4.40;88.00;;;;;;5000261;28;20077;-76
2021/03/04 06:56:52;;;;;;;4.47;1.70;;;4.40;87.90;;;;;;5404730;23;20082;-74
2021/03/04 06:59:18;;;;;;;4.90;1.80;;;4.40;88.10;;;;;;5020424;28;20042;-74
2021/03/04 07:01:44;;;;;;;6.93;2.42;;;4.40;88.10;;;;;;5004817;28;20038;-75
2021/03/04 07:04:15;;;;;;;6.05;2.30;;;4.50;88.00;;;;;;5005114;28;20041;-75
2021/03/04 07:06:45;;;;;;;4.30;1.77;;;4.50;88.00;;;;;;5005484;28;20064;-75
2021/03/04 07:09:11;;;;;;;5.57;2.20;;;4.50;87.90;;;;;;5022490;28;20045;-75
2021/03/04 07:11:37;;;;;;;6.10;2.50;;;4.50;87.90;;;;;;5003018;28;20058;-74
2021/03/04 07:14:06;;;;;;;4.95;1.95;;;4.50;87.90;;;;;;5014438;28;20040;-75
2021/03/04 07:16:36;;;;;;;6.63;2.33;;;4.40;87.90;;;;;;5015691;28;20100;-75
2021/03/04 07:19:03;;;;;;;5.72;2.05;;;4.50;87.90;;;;;;4997602;28;20396;-75
2021/03/04 07:21:37;;;;;;;5.53;1.90;;;4.50;87.90;;;;;;5015522;28;20488;-75
2021/03/04 07:24:04;;;;;;;4.57;2.20;;;4.40;87.80;;;;;;4996778;28;20058;-75
2021/03/04 07:26:30;;;;;;;9.00;2.20;;;4.50;87.90;;;;;;4997930;28;20052;-75
2021/03/04 07:28:57;;;;;;;5.95;2.03;;;4.50;87.90;;;;;;5014533;28;20050;-75
2021/03/04 07:31:23;;;;;;;4.65;1.50;;;4.50;88.00;;;;;;4997856;28;20034;-75
2021/03/04 07:33:51;;;;;;;6.10;1.98;;;4.50;88.00;;;;;;5018019;28;20045;-75
2021/03/04 07:36:22;;;;;;;4.28;1.70;;;4.40;87.90;;;;;;5019147;28;20034;-75
2021/03/04 07:39:02;;;;;;;5.25;1.48;;;4.40;88.00;;;;;;5019647;28;20069;-74
2021/03/04 07:41:41;;;;;;;5.43;1.75;;;4.50;88.10;;;;;;5002845;28;20060;-75
2021/03/04 07:44:08;;;;;;;5.47;1.85;;;4.50;88.10;;;;;;5019595;28;20042;-75
2021/03/04 07:46:36;;;;;;;4.75;2.10;;;4.50;87.90;;;;;;5020813;28;20061;-75
2021/03/04 07:49:05;;;;;;;5.07;1.83;;;4.50;87.90;;;;;;5020315;28;20133;-75
2021/03/04 07:51:42;;;;;;;4.47;1.90;;;4.50;87.90;;;;;;5018551;28;20057;-76
2021/03/04 07:54:09;;;;;;;3.88;1.60;;;4.50;88.00;;;;;;5018306;28;20057;-75
2021/03/04 07:56:38;;;;;;;5.32;1.70;;;4.50;87.90;;;;;;5002337;28;20076;-77
2021/03/04 07:59:10;;;;;;;5.40;1.98;;;4.60;87.90;;;;;;5001521;28;20515;-76
2021/03/04 08:01:36;;;;;;;5.93;1.80;;;4.60;88.00;;;;;;5018181;28;20112;-76
2021/03/04 08:04:02;;;;;;;5.00;1.90;;;4.60;88.00;;;;;;5019414;28;20096;-77
2021/03/04 08:06:28;;;;;;;5.80;2.05;;;4.50;87.90;;;;;;5019364;28;20045;-75
2021/03/04 08:08:54;;;;;;;5.03;1.80;;;4.50;87.90;;;;;;5016292;28;20046;-77
2021/03/04 08:11:29;;;;;;;5.85;2.20;;;4.50;87.90;;;;;;4995844;28;20042;-78
2021/03/04 08:13:56;;;;;;;5.22;2.08;;;4.50;88.00;;;;;;5014196;28;20069;-81
2021/03/04 08:16:22;;;;;;;4.50;1.65;;;4.50;88.00;;;;;;5016046;28;20065;-77
2021/03/04 08:19:03;;;;;;;6.72;1.75;;;4.60;88.00;;;;;;4995779;28;20345;-79
2021/03/04 08:21:40;;;;;;;4.30;1.60;;;4.50;87.90;;;;;;4996832;28;20041;-82
2021/03/04 08:27:27;;;;;;;2.67;1.42;;;4.60;88.00;;;;;;4921377;29;20513;-76
2021/03/04 08:29:53;;;;;;;4.15;1.70;;;4.50;87.70;;;;;;4914324;29;20205;-74
2021/03/04 08:32:19;;;;;;;7.55;2.28;;;4.60;87.80;;;;;;4914434;29;20139;-75
2021/03/04 08:34:45;;;;;;;6.32;2.00;;;4.60;87.90;;;;;;4913815;29;20044;-75
2021/03/04 08:37:22;;;;;;;7.07;2.20;;;4.60;87.80;;;;;;4913744;29;20048;-75
2021/03/04 08:39:48;;;;;;;5.55;2.15;;;4.60;87.80;;;;;;4897353;29;20119;-74
2021/03/04 08:42:14;;;;;;;7.05;2.10;;;4.50;87.80;;;;;;4913998;29;20076;-76
2021/03/04 08:44:48;;;;;;;4.30;1.52;;;4.60;88.00;;;;;;4913561;29;20056;-75
2021/03/04 08:47:16;;;;;;;4.50;2.17;;;4.60;88.00;;;;;;4914284;29;20036;-74
2021/03/04 08:49:50;;;;;;;6.18;2.17;;;4.60;87.90;;;;;;4913478;29;20154;-76
2021/03/04 08:52:21;;;;;;;5.75;2.17;;;4.60;87.80;;;;;;4912458;29;20454;-76
2021/03/04 08:54:50;;;;;;;7.15;2.17;;;4.70;87.80;;;;;;4913129;29;20088;-77
2021/03/04 08:57:25;;;;;;;5.47;1.77;;;4.50;87.80;;;;;;4925411;29;20039;-73
2021/03/04 09:00:09;;;;;;;5.43;2.10;;;4.60;87.80;;;;;;4956826;28;20046;-74
2021/03/04 09:02:35;;;;;;;6.25;1.63;;;4.80;88.00;;;;;;5012318;28;20081;-74
2021/03/04 09:05:01;;;;;;;8.88;2.42;;;4.70;87.80;;;;;;5012507;28;20100;-74
2021/03/04 09:07:32;;;;;;;4.63;2.05;;;4.70;87.80;;;;;;5011927;28;20528;-76
2021/03/04 09:10:01;;;;;;;4.35;1.60;;;4.70;87.80;;;;;;5012031;28;20045;-73
2021/03/04 09:12:27;;;;;;;5.03;1.95;;;4.70;87.80;;;;;;5012214;28;20050;-74
2021/03/04 09:14:55;;;;;;;5.18;1.52;;;4.70;87.80;;;;;;5012223;28;20042;-73
2021/03/04 09:17:20;;;;;;;5.32;2.03;;;4.70;88.40;;;;;;4994634;28;20114;-73
2021/03/04 09:19:53;;;;;;;3.72;1.52;;;4.70;87.90;;;;;;5012032;28;20037;-73
2021/03/04 09:22:19;;;;;;;5.88;1.95;;;4.70;87.90;;;;;;5012031;28;20056;-73
2021/03/04 09:24:46;;;;;;;4.85;1.73;;;4.70;87.80;;;;;;4994733;28;20543;-74
2021/03/04 09:27:13;;;;;;;6.85;2.10;;;4.70;87.80;;;;;;5012085;28;20058;-74
2021/03/04 09:29:41;;;;;;;3.05;1.20;;;4.60;87.80;;;;;;5011738;28;20046;-75
2021/03/04 09:32:07;;;;;;;4.07;1.70;;;4.70;87.70;;;;;;4994012;28;20480;-75
2021/03/04 09:34:41;;;;;;;3.92;1.25;;;4.80;87.80;;;;;;4994140;28;20053;-73
2021/03/04 09:37:11;;;;;;;4.25;1.50;;;4.80;87.80;;;;;;5011706;28;20129;-74
2021/03/04 09:39:41;;;;;;;4.68;1.90;;;4.80;87.90;;;;;;4994467;28;20102;-75
2021/03/04 09:42:07;;;;;;;5.40;1.77;;;4.90;87.90;;;;;;4994607;28;20056;-75
2021/03/04 09:44:44;;;;;;;7.68;2.00;;;4.80;87.70;;;;;;5011555;28;20072;-76
2021/03/04 09:47:19;;;;;;;4.82;1.50;;;4.90;87.70;;;;;;5011469;28;20045;-73
2021/03/04 09:49:45;;;;;;;3.78;1.42;;;4.90;87.70;;;;;;5011203;28;20038;-74
2021/03/04 09:52:26;;;;;;;2.63;1.27;;;4.90;87.60;;;;;;5011551;28;20038;-75
2021/03/04 09:55:05;;;;;;;3.42;1.38;;;4.90;87.60;;;;;;5011574;28;20070;-76
2021/03/04 09:57:30;;;;;;;4.38;1.60;;;5.00;87.60;;;;;;5012179;28;20125;-76
2021/03/04 09:59:56;;;;;;;4.65;1.83;;;4.90;87.50;;;;;;5012115;28;20456;-75
2021/03/04 10:02:26;;;;;;;4.07;1.90;;;4.80;87.50;;;;;;5012150;28;20040;-77
2021/03/04 10:04:57;;;;;;;3.00;1.35;;;5.10;87.60;;;;;;4994321;28;20050;-73
2021/03/04 10:07:26;;;;;;;4.78;1.42;;;5.00;87.50;;;;;;4979955;28;20046;-75
2021/03/04 10:09:52;;;;;;;4.55;1.60;;;5.00;87.40;;;;;;5013190;28;20053;-75
2021/03/04 10:12:18;;;;;;;3.72;1.50;;;5.10;87.30;;;;;;4997231;28;20136;-76
2021/03/04 10:14:46;;;;;;;4.18;1.60;;;5.00;87.20;;;;;;5017258;28;20080;-74
2021/03/04 10:17:12;;;;;;;4.63;1.60;;;5.10;87.20;;;;;;5014846;28;20038;-74
2021/03/04 10:19:38;;;;;;;5.43;1.67;;;5.10;87.20;;;;;;4981052;28;20400;-74
2021/03/04 10:22:04;;;;;;;3.10;1.33;;;5.10;87.20;;;;;;4996817;28;20510;-75
2021/03/04 10:24:30;;;;;;;6.15;1.90;;;5.10;87.20;;;;;;5014473;28;20121;-74
2021/03/04 10:26:58;;;;;;;4.30;1.33;;;5.10;87.20;;;;;;4997946;28;20064;-74
2021/03/04 10:29:25;;;;;;;3.65;1.35;;;5.10;87.20;;;;;;4997264;28;20136;-75
2021/03/04 10:31:51;;;;;;;5.07;1.70;;;5.20;87.30;;;;;;5014511;28;20046;-75
2021/03/04 10:34:17;;;;;;;3.28;1.40;;;5.10;87.10;;;;;;5015661;28;20089;-75
2021/03/04 10:36:42;;;;;;;3.75;1.67;;;5.30;87.40;;;;;;4997810;28;20040;-74
2021/03/04 10:39:08;;;;;;;3.17;1.42;;;5.10;87.20;;;;;;4997127;28;20096;-75
2021/03/04 10:41:34;;;;;;;5.43;1.77;;;5.20;87.30;;;;;;5014796;28;20519;-73
2021/03/04 10:43:59;;;;;;;5.53;1.83;;;5.20;87.20;;;;;;5015118;28;20037;-75
2021/03/04 10:46:28;;;;;;;2.67;1.27;;;5.30;87.30;;;;;;4997017;28;20493;-72
2021/03/04 10:48:54;;;;;;;4.53;1.52;;;5.20;87.20;;;;;;5014536;28;20056;-72
2021/03/04 10:51:20;;;;;;;3.38;1.35;;;5.30;87.20;;;;;;5014534;28;20050;-74
2021/03/04 10:53:45;;;;;;;4.07;1.40;;;5.30;87.20;;;;;;5014368;28;20042;-74
2021/03/04 10:56:11;;;;;;;2.20;0.90;;;5.20;87.10;;;;;;5014237;28;20065;-74
2021/03/04 10:58:37;;;;;;;2.63;1.13;;;5.30;87.10;;;;;;4997042;28;20540;-74
2021/03/04 11:01:02;;;;;;;3.05;1.40;;;5.30;87.10;;;;;;4996545;28;20078;-74
2021/03/04 11:03:28;;;;;;;2.25;1.00;;;5.30;87.00;;;;;;5014281;28;20067;-74
2021/03/04 11:05:55;;;;;;;2.75;1.13;;;5.30;86.90;;;;;;5014170;28;20059;-73
2021/03/04 11:08:21;;;;;;;3.45;1.38;;;5.50;86.90;;;;;;4996327;28;20069;-74
2021/03/04 11:10:47;;;;;;;2.67;1.30;;;5.40;87.00;;;;;;4996656;28;20042;-74
2021/03/04 11:13:15;;;;;;;2.50;1.17;;;5.50;86.80;;;;;;4996606;28;20120;-75
2021/03/04 11:15:42;;;;;;;3.65;1.15;;;5.50;86.70;;;;;;5013760;28;20096;-74
2021/03/04 11:18:07;;;;;;;3.42;1.00;;;5.50;86.70;;;;;;5013473;28;20488;-75
2021/03/04 11:20:33;;;;;;;3.50;1.42;;;5.50;86.60;;;;;;4980044;28;20076;-76
2021/03/04 11:22:59;;;;;;;2.10;0.85;;;5.50;86.70;;;;;;4996270;28;20042;-74
2021/03/04 11:25:25;;;;;;;4.38;1.55;;;5.50;86.70;;;;;;5013807;28;20144;-73
2021/03/04 11:27:51;;;;;;;3.13;1.35;;;5.60;86.70;;;;;;5014156;28;20048;-74
2021/03/04 11:30:17;;;;;;;3.40;1.40;;;5.50;86.70;;;;;;4996061;28;20496;-74
2021/03/04 11:32:43;;;;;;;4.50;1.23;;;5.60;86.70;;;;;;5013590;28;20117;-74
2021/03/04 11:35:12;;;;;;;3.78;1.45;;;5.60;86.70;;;;;;5014197;28;20456;-73
2021/03/04 11:37:37;;;;;;;4.30;1.40;;;5.50;86.60;;;;;;4996167;28;20051;-74
2021/03/04 11:40:04;;;;;;;3.33;1.40;;;5.60;86.60;;;;;;5013338;28;20038;-74
2021/03/04 11:42:30;;;;;;;2.90;1.30;;;5.60;86.60;;;;;;5011564;28;20049;-73
2021/03/04 11:44:56;;;;;;;2.63;1.35;;;5.50;86.60;;;;;;4995564;28;20483;-75
2021/03/04 11:47:22;;;;;;;3.25;1.00;;;5.50;86.50;;;;;;5013224;28;20565;-74
2021/03/04 11:49:47;;;;;;;2.83;1.08;;;5.50;86.60;;;;;;4996362;28;20081;-73
2021/03/04 11:52:13;;;;;;;2.15;1.00;;;5.50;86.60;;;;;;5013676;28;20038;-74
2021/03/04 11:54:39;;;;;;;3.13;1.15;;;5.50;86.70;;;;;;4995905;28;20081;-73
2021/03/04 11:57:05;;;;;;;2.75;0.95;;;5.50;86.70;;;;;;5013312;28;20042;-73
2021/03/04 11:59:31;;;;;;;3.30;1.30;;;5.50;86.80;;;;;;5011337;28;20030;-73
2021/03/04 12:01:56;;;;;;;2.75;1.10;;;5.50;86.70;;;;;;5013691;28;20341;-73
2021/03/04 12:04:23;;;;;;;1.67;0.93;;;5.40;86.70;;;;;;5013161;28;20487;-73
2021/03/04 12:06:48;;;;;;;2.17;0.80;;;5.40;86.70;;;;;;5013481;28;20046;-73
2021/03/04 12:09:14;;;;;;;1.25;0.70;;;5.60;86.90;;;;;;5012925;28;20523;-73
2021/03/04 12:11:40;;;;;;;2.15;0.80;;;5.50;86.70;;;;;;5013173;28;20085;-73
2021/03/04 12:14:05;;;;;;;1.77;0.90;;;5.50;86.60;;;;;;5013376;28;20065;-74
2021/03/04 12:16:31;;;;;;;2.05;0.95;;;5.40;86.50;;;;;;5013246;28;20065;-73
2021/03/04 12:18:57;;;;;;;1.73;0.90;;;5.40;86.60;;;;;;5013342;28;20484;-73
2021/03/04 12:21:23;;;;;;;1.55;0.90;;;5.30;87.20;;;;;;5013416;28;20538;-73
2021/03/04 12:23:49;;;;;;;2.13;0.80;;;5.50;86.70;;;;;;4993567;28;20053;-73
2021/03/04 12:26:15;;;;;;;2.70;1.30;;;5.40;86.60;;;;;;4995734;28;20038;-74
2021/03/04 12:28:41;;;;;;;2.13;0.88;;;5.40;86.50;;;;;;5012696;28;20040;-73
2021/03/04 12:31:06;;;;;;;1.92;1.05;;;5.50;86.30;;;;;;5013232;28;20106;-73
2021/03/04 12:33:32;;;;;;;1.48;0.88;;;5.60;86.40;;;;;;5013150;28;20042;-73
2021/03/04 12:35:58;;;;;;;1.77;0.85;;;5.70;86.20;;;;;;5012540;28;20400;-74
2021/03/04 12:38:24;;;;;;;2.70;0.93;;;5.70;85.90;;;;;;5012484;28;20432;-75
2021/03/04 12:40:49;;;;;;;1.55;0.75;;;5.80;85.60;;;;;;5012744;28;20046;-73
2021/03/04 12:43:15;;;;;;;1.08;0.45;;;5.80;85.50;;;;;;5013013;28;20118;-75
2021/03/04 12:45:41;;;;;;;0.90;0.70;;;5.90;85.50;;;;;;4995278;28;20447;-75
2021/03/04 12:48:07;;;;;;;1.20;0.65;;;5.90;85.30;;;;;;4995006;28;20037;-74
2021/03/04 12:50:32;;;;;;;1.20;0.60;;;6.00;85.30;;;;;;5012523;28;20034;-73
2021/03/04 12:53:00;;;;;;;1.75;0.90;;;6.00;85.10;;;;;;5012508;28;20711;-75
2021/03/04 12:55:26;;;;;;;0.73;0.50;;;6.10;85.00;;;;;;5012765;28;20046;-75
2021/03/04 12:57:52;;;;;;;0.93;0.45;;;6.20;84.90;;;;;;4994893;28;20069;-74
2021/03/04 13:00:18;;;;;;;0.68;0.30;;;6.30;84.80;;;;;;5012400;28;20400;-75
2021/03/04 13:02:44;;;;;;;0.35;0.20;;;6.20;84.60;;;;;;5012712;28;20476;-74
2021/03/04 13:05:10;;;;;;;0.65;0.40;;;6.30;84.60;;;;;;5012957;28;20045;-74